Atlantic Mine, Michigan
Current Conditions -  °F | °C
As of 2:53 AM on Friday 19 Dec 2014 (Local Time) from KCMX Reporting Station
Overcast Overcast  
Wind Chill:   Ceiling: 1700
Heat Index: 15°   Visibility: 10mi
Dew Point: 12°   Wind: 5mph
Humidity: 88%   Direction: 340°NNW
Pressure: 30.25"   Gusts: NA
Location:  47.1°N, 88.63°W
Report Text: KCMX 190753Z AUTO 34004KT 10SM OVC017 M09/M11 A3025 RMK AO2 SLP263 I1000 T10941111
Loading
Personal Weather Stations






























Interactive Weather Map New forecast layout! Learn more

10-Day Weather Forecast

Advertisements
Track Severe Weather on mobile